Time;durP1;ratioP1;P1;durP2;ratioP2;P2;SDS_P1;SDS_P2;PMS_P1;PMS_P2;Temp;Humidity;BMP_temperature;BMP_pressure;BME280_temperature;BME280_humidity;BME280_pressure;Samples;Min_cycle;Max_cycle;Signal;HPM_P1;HPM_P2
2021/12/21 00:01:17;;;;;;;2.20;1.25;;;-3.00;99.90;;;;;;5052917;28;20368;-72
2021/12/21 00:03:42;;;;;;;2.67;1.50;;;-3.10;99.90;;;;;;5070350;28;20037;-73
2021/12/21 00:06:09;;;;;;;2.90;1.20;;;-3.10;99.90;;;;;;5059783;28;20456;-73
2021/12/21 00:08:36;;;;;;;2.10;1.08;;;-3.10;99.90;;;;;;5052702;28;20131;-73
2021/12/21 00:11:02;;;;;;;3.22;1.38;;;-3.10;99.90;;;;;;5052689;28;20615;-72
2021/12/21 00:18:41;;;;;;;2.00;1.13;;;-3.20;99.90;;;;;;5032736;28;20037;-72
2021/12/21 00:21:20;;;;;;;2.13;1.05;;;-3.20;99.90;;;;;;5050437;28;20029;-72
2021/12/21 00:23:50;;;;;;;2.75;1.30;;;-3.20;99.90;;;;;;5049965;28;20071;-72
2021/12/21 00:26:19;;;;;;;3.55;1.40;;;-3.30;99.90;;;;;;5059630;28;20025;-72
2021/12/21 00:31:23;;;;;;;2.38;1.30;;;-3.40;99.90;;;;;;5072267;28;20089;-72
2021/12/21 00:33:49;;;;;;;2.15;1.02;;;-3.30;99.90;;;;;;5073594;28;20032;-72
2021/12/21 00:36:17;;;;;;;3.22;1.50;;;-3.30;99.90;;;;;;5071204;28;20469;-73
2021/12/21 00:38:44;;;;;;;2.00;1.30;;;-3.30;99.90;;;;;;5055307;28;20460;-73
2021/12/21 00:41:10;;;;;;;2.88;1.33;;;-3.40;99.90;;;;;;5055901;28;20044;-72
2021/12/21 00:43:36;;;;;;;3.00;1.10;;;-3.40;99.90;;;;;;5073687;28;20074;-72
2021/12/21 00:46:02;;;;;;;2.60;1.15;;;-3.50;99.90;;;;;;5051620;28;20041;-73
2021/12/21 00:48:30;;;;;;;3.78;1.67;;;-3.50;99.90;;;;;;5035366;28;20067;-72
2021/12/21 00:51:02;;;;;;;3.35;1.42;;;-3.40;99.90;;;;;;5054428;28;20036;-73
2021/12/21 00:53:28;;;;;;;6.47;5.07;;;-3.50;99.90;;;;;;5055338;28;20028;-73
2021/12/21 00:55:54;;;;;;;1.43;1.17;;;-3.50;99.90;;;;;;5051458;28;20039;-72
2021/12/21 00:58:20;;;;;;;5.35;1.83;;;-3.50;99.90;;;;;;5070660;28;20616;-72
2021/12/21 01:00:45;;;;;;;3.40;1.55;;;-3.60;99.90;;;;;;5073567;28;20090;-73
2021/12/21 01:03:14;;;;;;;3.23;1.50;;;-3.50;99.90;;;;;;5055214;28;20048;-72
2021/12/21 01:06:11;;;;;;;4.45;1.75;;;-3.70;99.90;;;;;;5068273;28;20309;-73
2021/12/21 01:08:30;;;;;;;;;;;-3.70;99.90;;;;;;5069710;28;20066;-72
2021/12/21 01:21:41;;;;;;;2.45;1.08;;;-3.70;99.90;;;;;;5073472;28;20017;-72
2021/12/21 01:24:58;;;;;;;2.40;1.20;;;-3.80;99.90;;;;;;5072570;28;20055;-73
2021/12/21 01:27:22;;;;;;;1.42;0.82;;;-3.80;99.90;;;;;;5064115;28;20307;-73
2021/12/21 01:30:14;;;;;;;2.85;1.45;;;-3.80;99.90;;;;;;5072505;28;20119;-72
2021/12/21 01:35:23;;;;;;;4.05;1.45;;;-4.00;99.90;;;;;;5072502;28;20424;-73
2021/12/21 01:43:04;;;;;;;2.90;1.40;;;-4.00;99.90;;;;;;5071696;28;20059;-72
2021/12/21 01:50:57;;;;;;;3.03;1.27;;;-4.10;99.90;;;;;;5072598;28;20249;-73
2021/12/21 01:53:23;;;;;;;1.83;1.30;;;-4.10;99.90;;;;;;5072303;28;20133;-73
2021/12/21 01:55:49;;;;;;;3.15;1.25;;;-4.00;99.90;;;;;;5054140;28;20519;-74
2021/12/21 01:58:15;;;;;;;1.88;1.00;;;-4.10;99.90;;;;;;5056448;28;20124;-73
2021/12/21 02:00:41;;;;;;;3.47;1.63;;;-4.10;99.90;;;;;;5051423;28;20036;-73
2021/12/21 02:03:07;;;;;;;4.13;2.00;;;-4.10;99.90;;;;;;5072327;28;20112;-73
2021/12/21 02:05:33;;;;;;;2.05;1.27;;;-4.10;99.90;;;;;;5072150;28;20165;-73
2021/12/21 02:07:59;;;;;;;6.68;1.70;;;-4.20;99.90;;;;;;5049487;28;20401;-73
2021/12/21 02:10:25;;;;;;;3.72;1.83;;;-4.20;99.90;;;;;;5067003;28;20025;-73
2021/12/21 02:12:51;;;;;;;4.63;1.85;;;-4.20;99.90;;;;;;5072276;28;20154;-73
2021/12/21 02:15:17;;;;;;;6.60;1.80;;;-4.20;99.90;;;;;;5072190;28;20063;-73
2021/12/21 02:20:54;;;;;;;3.22;1.42;;;-4.20;99.90;;;;;;5067346;28;20058;-73
2021/12/21 02:23:23;;;;;;;2.17;1.20;;;-4.20;99.90;;;;;;5071083;28;20369;-73
2021/12/21 02:30:56;;;;;;;2.60;1.05;;;-4.20;99.90;;;;;;5071177;28;20490;-72
2021/12/21 02:33:25;;;;;;;3.95;1.27;;;-4.30;99.90;;;;;;5071692;28;20099;-73
2021/12/21 02:35:52;;;;;;;2.33;1.30;;;-4.30;99.90;;;;;;5071543;28;20036;-73
2021/12/21 02:38:18;;;;;;;3.13;1.80;;;-4.30;99.90;;;;;;5048429;28;20029;-73
2021/12/21 02:40:44;;;;;;;1.77;0.80;;;-4.30;99.90;;;;;;5053107;28;20059;-72
2021/12/21 02:43:10;;;;;;;2.38;1.05;;;-4.30;99.90;;;;;;5053465;28;20281;-73
2021/12/21 02:45:38;;;;;;;3.03;1.27;;;-4.40;99.90;;;;;;5036804;28;20467;-73
2021/12/21 02:48:05;;;;;;;2.15;1.17;;;-4.30;99.90;;;;;;5042427;28;20479;-73
2021/12/21 02:50:31;;;;;;;2.83;1.35;;;-4.40;99.90;;;;;;5052973;28;20029;-74
2021/12/21 02:52:59;;;;;;;3.78;1.25;;;-4.40;99.90;;;;;;5053219;28;20029;-74
2021/12/21 02:55:26;;;;;;;2.55;0.90;;;-4.40;99.90;;;;;;5052832;28;20119;-74
2021/12/21 02:57:52;;;;;;;3.20;2.05;;;-4.40;99.90;;;;;;5049404;28;20523;-74
2021/12/21 03:00:18;;;;;;;1.50;1.10;;;-4.40;99.90;;;;;;5065147;28;20028;-73
2021/12/21 03:02:44;;;;;;;2.67;0.90;;;-4.40;99.90;;;;;;5053073;28;20086;-73
2021/12/21 03:05:11;;;;;;;3.42;1.15;;;-4.30;99.90;;;;;;5065359;28;20436;-73
2021/12/21 03:10:16;;;;;;;4.30;1.58;;;-4.40;99.90;;;;;;5070712;28;20412;-72
2021/12/21 03:15:29;;;;;;;2.83;1.20;;;-4.50;99.90;;;;;;5064012;28;20116;-73
2021/12/21 03:17:56;;;;;;;2.63;1.30;;;-4.50;99.90;;;;;;5033208;28;20041;-73
2021/12/21 03:20:24;;;;;;;1.70;1.10;;;-4.70;99.90;;;;;;5047062;28;20028;-73
2021/12/21 03:22:50;;;;;;;3.63;1.92;;;-4.60;99.90;;;;;;5052896;28;20036;-73
2021/12/21 03:25:17;;;;;;;2.58;1.30;;;-4.60;99.90;;;;;;5052233;28;20281;-72
2021/12/21 03:27:43;;;;;;;3.35;1.45;;;-4.50;99.90;;;;;;5069550;28;20036;-71
2021/12/21 03:30:13;;;;;;;2.53;1.25;;;-4.50;99.90;;;;;;5070389;28;20071;-72
2021/12/21 03:32:39;;;;;;;2.65;1.20;;;-4.50;99.90;;;;;;5071019;28;20029;-73
2021/12/21 03:35:06;;;;;;;2.90;1.52;;;-4.50;99.90;;;;;;5058496;28;20456;-72
2021/12/21 03:37:32;;;;;;;2.38;1.25;;;-4.50;99.90;;;;;;5051257;28;20123;-73
2021/12/21 03:40:00;;;;;;;2.65;0.95;;;-4.40;99.90;;;;;;5069712;28;20174;-72
2021/12/21 03:42:26;;;;;;;2.42;1.25;;;-4.40;99.90;;;;;;5070718;28;20395;-72
2021/12/21 03:44:52;;;;;;;3.08;1.50;;;-4.40;99.90;;;;;;5052071;28;20031;-72
2021/12/21 03:47:18;;;;;;;3.95;1.58;;;-4.40;99.90;;;;;;5050841;28;20028;-72
2021/12/21 03:52:20;;;;;;;;;;;-4.40;99.90;;;;;;5070595;28;20048;-73
2021/12/21 03:54:53;;;;;;;5.57;1.75;;;-4.40;99.90;;;;;;5042469;28;19908;-73
2021/12/21 03:57:19;;;;;;;3.10;1.40;;;-4.40;99.90;;;;;;5065680;28;20024;-72
2021/12/21 03:59:48;;;;;;;4.60;1.67;;;-4.40;99.90;;;;;;5051801;28;20027;-73
2021/12/21 04:02:14;;;;;;;3.22;1.63;;;-4.30;99.90;;;;;;5052294;28;20047;-73
2021/12/21 04:04:41;;;;;;;2.90;1.50;;;-4.40;99.90;;;;;;5070091;28;20020;-74
2021/12/21 04:07:07;;;;;;;2.60;1.40;;;-4.40;99.90;;;;;;5058066;28;20124;-72
2021/12/21 04:09:34;;;;;;;2.15;1.40;;;-4.40;99.90;;;;;;5061417;28;20100;-73
2021/12/21 04:12:03;;;;;;;4.10;1.58;;;-4.40;99.90;;;;;;5073833;28;20417;-72
2021/12/21 04:14:30;;;;;;;4.55;1.88;;;-4.50;99.90;;;;;;5073930;28;20460;-72
2021/12/21 04:16:57;;;;;;;2.50;1.40;;;-4.40;99.90;;;;;;5054008;28;20590;-73
2021/12/21 04:19:23;;;;;;;5.50;1.80;;;-4.40;99.90;;;;;;5073853;28;20021;-72
2021/12/21 04:21:49;;;;;;;2.55;1.30;;;-4.40;99.90;;;;;;5055506;28;20553;-72
2021/12/21 04:24:15;;;;;;;4.72;1.90;;;-4.40;99.90;;;;;;5073251;28;20033;-72
2021/12/21 04:26:41;;;;;;;4.25;1.90;;;-4.30;99.90;;;;;;5064669;28;20465;-72
2021/12/21 04:29:07;;;;;;;2.70;1.45;;;-4.40;99.90;;;;;;5071308;28;20021;-72
2021/12/21 04:31:32;;;;;;;3.47;1.60;;;-4.30;99.90;;;;;;5072874;28;20025;-72
2021/12/21 04:33:59;;;;;;;1.65;0.90;;;-4.40;99.90;;;;;;5073012;28;20491;-72
2021/12/21 04:36:25;;;;;;;2.00;1.48;;;-4.40;99.90;;;;;;5054669;28;20028;-74
2021/12/21 04:38:52;;;;;;;2.45;1.20;;;-4.60;99.90;;;;;;5071370;28;20078;-73
2021/12/21 04:41:24;;;;;;;3.45;1.13;;;-4.70;99.90;;;;;;5073199;28;20424;-74
2021/12/21 04:43:56;;;;;;;1.92;1.30;;;-4.80;99.90;;;;;;5072826;28;20502;-73
2021/12/21 04:46:23;;;;;;;5.00;1.85;;;-4.90;99.90;;;;;;5069123;28;20074;-73
2021/12/21 04:48:50;;;;;;;2.90;1.45;;;-4.90;99.90;;;;;;5054424;28;20036;-73
2021/12/21 04:51:15;;;;;;;;;;;-4.90;99.90;;;;;;5055380;28;20036;-73
2021/12/21 04:53:41;;;;;;;2.58;1.30;;;-4.90;99.90;;;;;;5073577;28;19969;-71
2021/12/21 04:56:07;;;;;;;3.53;1.33;;;-4.90;99.90;;;;;;5054766;28;20521;-72
2021/12/21 04:58:33;;;;;;;2.03;1.30;;;-4.80;99.90;;;;;;5072234;28;20353;-71
2021/12/21 05:01:00;;;;;;;2.88;1.50;;;-4.80;99.90;;;;;;5073122;28;20356;-72
2021/12/21 05:03:26;;;;;;;3.33;1.50;;;-4.80;99.90;;;;;;5055093;28;20118;-72
2021/12/21 05:05:52;;;;;;;4.30;1.88;;;-4.80;99.90;;;;;;5073321;28;20021;-72
2021/12/21 05:08:22;;;;;;;4.13;1.80;;;-4.90;99.90;;;;;;5071077;28;20064;-72
2021/12/21 05:10:51;;;;;;;3.13;1.30;;;-4.90;99.90;;;;;;5054536;28;20063;-72
2021/12/21 05:13:19;;;;;;;5.75;1.77;;;-4.90;99.90;;;;;;5073102;28;20400;-73
2021/12/21 05:15:45;;;;;;;3.72;1.80;;;-4.90;99.90;;;;;;5072518;28;20103;-73
2021/12/21 05:18:12;;;;;;;5.30;2.55;;;-4.90;99.90;;;;;;5052634;28;20044;-74
2021/12/21 05:20:38;;;;;;;5.47;2.38;;;-4.90;99.90;;;;;;5072828;28;20414;-74
2021/12/21 05:23:05;;;;;;;3.65;1.77;;;-4.90;99.90;;;;;;5054786;28;20388;-73
2021/12/21 05:25:31;;;;;;;;;;;-5.00;99.90;;;;;;5073152;28;20079;-74
2021/12/21 05:27:57;;;;;;;4.72;2.25;;;-5.00;99.90;;;;;;5062092;28;19921;-73
2021/12/21 05:30:23;;;;;;;4.57;2.10;;;-4.80;99.90;;;;;;5072440;28;20086;-71
2021/12/21 05:32:53;;;;;;;3.72;1.75;;;-4.90;99.90;;;;;;5054716;28;20094;-72
2021/12/21 05:35:20;;;;;;;3.90;1.60;;;-4.90;99.90;;;;;;5054636;28;20024;-75
2021/12/21 05:37:48;;;;;;;3.90;1.63;;;-5.00;99.90;;;;;;5071236;28;20043;-73
2021/12/21 05:40:16;;;;;;;4.15;1.90;;;-5.00;99.90;;;;;;5064476;28;20052;-72
2021/12/21 05:42:45;;;;;;;2.33;1.35;;;-5.00;99.90;;;;;;5054477;28;20123;-74
2021/12/21 05:45:14;;;;;;;5.40;1.80;;;-5.10;99.90;;;;;;5072484;28;20644;-73
2021/12/21 05:47:40;;;;;;;3.20;1.80;;;-5.00;99.90;;;;;;5064586;28;20021;-73
2021/12/21 05:50:11;;;;;;;4.82;2.17;;;-5.10;99.90;;;;;;5069922;28;20033;-73
2021/12/21 05:52:37;;;;;;;4.88;2.13;;;-5.20;99.90;;;;;;5053742;28;20460;-75
2021/12/21 05:55:04;;;;;;;2.20;1.30;;;-5.30;99.90;;;;;;5053273;28;20036;-73
2021/12/21 05:57:31;;;;;;;5.85;1.63;;;-5.40;99.90;;;;;;5052371;28;20051;-73
2021/12/21 05:59:56;;;;;;;;;;;-5.40;99.90;;;;;;5063966;28;20028;-73
2021/12/21 06:02:22;;;;;;;2.95;1.42;;;-5.40;99.90;;;;;;5053652;28;19930;-73
2021/12/21 06:04:48;;;;;;;3.65;1.33;;;-5.40;99.90;;;;;;5071599;28;20043;-73
2021/12/21 06:07:14;;;;;;;2.70;1.52;;;-5.30;99.90;;;;;;5053675;28;20036;-72
2021/12/21 06:09:41;;;;;;;3.17;1.08;;;-5.30;99.90;;;;;;5051965;28;20139;-74
2021/12/21 06:12:15;;;;;;;3.08;1.30;;;-5.30;99.90;;;;;;5053822;28;20055;-73
2021/12/21 06:25:41;;;;;;;3.28;1.45;;;-5.50;99.90;;;;;;5071624;28;20115;-72
2021/12/21 06:28:09;;;;;;;4.38;2.00;;;-5.60;99.90;;;;;;5070888;28;20437;-73
2021/12/21 06:30:36;;;;;;;4.15;1.98;;;-5.50;99.90;;;;;;5051911;28;20058;-74
2021/12/21 06:33:02;;;;;;;2.42;1.55;;;-5.60;99.90;;;;;;5071559;28;20025;-74
2021/12/21 06:35:28;;;;;;;3.10;1.40;;;-5.70;99.90;;;;;;5071218;28;20047;-73
2021/12/21 06:37:54;;;;;;;5.32;1.40;;;-5.70;99.90;;;;;;5071392;28;20028;-74
2021/12/21 06:40:20;;;;;;;2.75;1.40;;;-5.80;99.90;;;;;;5063846;28;20402;-73
2021/12/21 06:42:49;;;;;;;6.22;1.88;;;-5.80;99.90;;;;;;5071787;28;20048;-73
2021/12/21 06:45:25;;;;;;;3.03;1.30;;;-5.80;99.90;;;;;;5071087;28;20427;-73
2021/12/21 06:53:21;;;;;;;4.00;1.83;;;-5.70;99.90;;;;;;5070962;28;20072;-70
2021/12/21 06:55:46;;;;;;;1.73;0.85;;;-5.30;99.90;;;;;;5053169;28;20535;-70
2021/12/21 06:58:12;;;;;;;4.22;1.23;;;-5.40;99.90;;;;;;5044556;28;20474;-70
2021/12/21 07:00:38;;;;;;;1.35;0.95;;;-5.50;99.90;;;;;;5067025;28;20052;-70
2021/12/21 07:03:04;;;;;;;1.52;1.02;;;-5.50;99.90;;;;;;5051274;28;20097;-70
2021/12/21 07:05:30;;;;;;;2.80;1.13;;;-5.40;99.90;;;;;;5071071;28;20032;-70
2021/12/21 07:07:56;;;;;;;1.52;1.00;;;-5.40;99.90;;;;;;5070300;28;20033;-70
2021/12/21 07:10:26;;;;;;;2.35;1.00;;;-5.50;99.90;;;;;;5034019;28;20025;-70
2021/12/21 07:20:34;;;;;;;4.30;1.58;;;-5.80;99.90;;;;;;5066005;28;20839;-70
2021/12/21 07:23:00;;;;;;;1.45;0.90;;;-5.80;99.90;;;;;;5070611;28;20027;-71
2021/12/21 07:25:27;;;;;;;1.98;1.25;;;-5.90;99.90;;;;;;5070174;28;20032;-70
2021/12/21 07:27:53;;;;;;;3.45;1.58;;;-6.00;99.90;;;;;;5071100;28;20500;-71
2021/12/21 07:30:19;;;;;;;1.88;1.00;;;-6.10;99.90;;;;;;5063951;28;20020;-70
2021/12/21 07:32:45;;;;;;;2.15;0.90;;;-6.10;99.90;;;;;;5067127;28;20131;-70
2021/12/21 07:35:11;;;;;;;7.78;3.80;;;-6.10;99.90;;;;;;5069269;28;20150;-67
2021/12/21 07:37:37;;;;;;;3.35;1.40;;;-6.10;99.90;;;;;;5070711;28;20064;-67
2021/12/21 07:40:04;;;;;;;4.78;1.83;;;-6.10;99.90;;;;;;5065425;28;20044;-66
2021/12/21 07:42:30;;;;;;;3.60;1.50;;;-6.20;99.90;;;;;;5073065;28;20086;-67
2021/12/21 07:44:56;;;;;;;2.92;1.40;;;-6.20;99.90;;;;;;5073593;28;20032;-71
2021/12/21 07:47:21;;;;;;;5.35;1.90;;;-5.90;99.90;;;;;;5072049;28;20029;-68
2021/12/21 07:49:47;;;;;;;5.68;1.73;;;-5.60;99.90;;;;;;5072691;28;20761;-71
2021/12/21 07:52:14;;;;;;;5.50;2.08;;;-5.60;99.90;;;;;;5072730;28;20039;-71
2021/12/21 07:54:40;;;;;;;3.83;1.92;;;-5.50;99.90;;;;;;5074983;28;20032;-71
2021/12/21 07:57:09;;;;;;;3.58;1.42;;;-5.50;99.90;;;;;;5074363;28;20469;-69
2021/12/21 07:59:37;;;;;;;4.45;1.52;;;-5.40;99.90;;;;;;5055548;28;20076;-69
2021/12/21 08:02:04;;;;;;;3.80;1.10;;;-5.40;99.90;;;;;;5072737;28;20507;-69
2021/12/21 08:04:30;;;;;;;2.47;1.50;;;-5.30;99.90;;;;;;5068275;28;20028;-70
2021/12/21 08:07:02;;;;;;;3.63;1.30;;;-5.40;99.90;;;;;;5061482;28;20033;-69
2021/12/21 08:09:38;;;;;;;3.53;1.30;;;-5.60;99.90;;;;;;5061714;28;20078;-72
2021/12/21 08:12:13;;;;;;;3.42;1.60;;;-5.70;99.90;;;;;;5066234;28;20040;-67
2021/12/21 08:14:39;;;;;;;3.45;2.05;;;-5.90;99.90;;;;;;5073216;28;20028;-69
2021/12/21 08:17:05;;;;;;;5.70;2.40;;;-5.70;99.90;;;;;;5044380;28;20112;-64
2021/12/21 08:19:31;;;;;;;6.50;2.78;;;-5.70;99.90;;;;;;5062334;28;20496;-67
2021/12/21 08:21:57;;;;;;;2.92;1.40;;;-5.90;99.90;;;;;;5062864;28;20069;-69
2021/12/21 08:24:22;;;;;;;2.28;1.15;;;-5.80;99.90;;;;;;5068820;28;20028;-68
2021/12/21 08:26:48;;;;;;;2.83;1.20;;;-5.90;99.90;;;;;;5065371;28;20040;-71
2021/12/21 08:29:14;;;;;;;4.40;1.70;;;-6.00;99.90;;;;;;5050771;28;20028;-69
2021/12/21 08:31:40;;;;;;;2.88;0.98;;;-6.20;99.90;;;;;;5050539;28;20029;-69
2021/12/21 08:34:05;;;;;;;4.53;1.25;;;-6.10;99.90;;;;;;5067313;28;20418;-68
2021/12/21 08:36:31;;;;;;;3.78;1.23;;;-6.00;99.90;;;;;;5063778;28;20523;-69
2021/12/21 08:38:57;;;;;;;2.08;1.30;;;-6.00;99.90;;;;;;5066661;28;20598;-63
2021/12/21 08:41:24;;;;;;;3.45;1.58;;;-6.00;99.90;;;;;;5067198;28;20060;-68
2021/12/21 08:43:51;;;;;;;4.63;1.77;;;-5.90;99.90;;;;;;5061720;28;20087;-69
2021/12/21 08:46:17;;;;;;;3.97;1.70;;;-5.80;99.90;;;;;;5068235;28;20067;-69
2021/12/21 08:48:43;;;;;;;4.03;1.65;;;-5.80;99.90;;;;;;5063710;28;20520;-70
2021/12/21 08:51:08;;;;;;;3.67;1.98;;;-5.70;99.90;;;;;;5062859;28;20386;-70
2021/12/21 08:53:37;;;;;;;3.35;1.50;;;-5.60;99.90;;;;;;5063219;28;20033;-69
2021/12/21 08:56:03;;;;;;;5.18;1.60;;;-5.70;99.90;;;;;;5066677;28;20067;-65
2021/12/21 08:58:28;;;;;;;6.15;1.77;;;-5.70;99.90;;;;;;5065496;28;20056;-66
2021/12/21 09:00:54;;;;;;;2.35;1.23;;;-5.90;99.90;;;;;;5061001;28;20498;-66
2021/12/21 09:03:22;;;;;;;6.75;1.50;;;-6.10;99.90;;;;;;5064544;28;20048;-66
2021/12/21 09:05:48;;;;;;;2.83;1.33;;;-6.30;99.90;;;;;;5072540;28;20545;-65
2021/12/21 09:08:13;;;;;;;3.45;1.23;;;-6.40;99.90;;;;;;5071323;28;20024;-67
2021/12/21 09:10:40;;;;;;;4.20;1.60;;;-6.20;99.90;;;;;;5064710;28;20032;-68
2021/12/21 09:13:09;;;;;;;3.25;1.70;;;-6.30;99.90;;;;;;5075121;28;20107;-65
2021/12/21 09:15:36;;;;;;;3.83;1.80;;;-6.20;99.90;;;;;;5047812;28;20024;-68
2021/12/21 09:18:02;;;;;;;3.42;1.65;;;-6.10;99.90;;;;;;5047442;28;20036;-65
2021/12/21 09:20:30;;;;;;;6.55;1.60;;;-6.00;99.90;;;;;;5061846;28;20034;-66
2021/12/21 09:22:56;;;;;;;2.58;1.50;;;-5.90;99.90;;;;;;5062798;28;20037;-64
2021/12/21 09:25:23;;;;;;;4.10;1.48;;;-6.00;99.90;;;;;;5064590;28;20029;-65
2021/12/21 09:27:50;;;;;;;7.22;1.80;;;-5.80;99.90;;;;;;5065781;28;20040;-65
2021/12/21 09:30:17;;;;;;;;;;;-5.80;99.90;;;;;;5067440;28;20033;-67
2021/12/21 09:32:43;;;;;;;4.97;1.63;;;-5.80;99.90;;;;;;5062547;28;20399;-67
2021/12/21 09:35:10;;;;;;;5.93;2.00;;;-5.50;99.90;;;;;;5065010;28;20367;-67
2021/12/21 09:37:37;;;;;;;2.88;1.50;;;-4.10;99.90;;;;;;5066231;28;20032;-70
2021/12/21 09:40:07;;;;;;;4.20;1.90;;;-5.00;99.90;;;;;;5062383;28;20652;-67
2021/12/21 09:42:33;;;;;;;2.92;1.55;;;-4.80;99.90;;;;;;5047583;28;20198;-67
2021/12/21 09:45:00;;;;;;;2.88;1.40;;;-4.50;99.90;;;;;;5063680;28;20912;-67
2021/12/21 09:47:26;;;;;;;3.92;1.40;;;-4.30;99.90;;;;;;5058447;28;20040;-67
2021/12/21 09:49:53;;;;;;;3.78;1.60;;;-4.20;99.90;;;;;;5065653;28;20033;-68
2021/12/21 09:52:22;;;;;;;4.65;1.70;;;-4.10;99.90;;;;;;5065167;28;20048;-67
2021/12/21 09:54:48;;;;;;;3.88;1.75;;;-4.30;99.90;;;;;;5067194;28;20536;-67
2021/12/21 09:57:17;;;;;;;2.75;1.48;;;-4.40;99.90;;;;;;5065114;28;20074;-67
2021/12/21 09:59:44;;;;;;;3.67;1.67;;;-4.50;99.90;;;;;;5066409;28;20028;-68
2021/12/21 10:02:10;;;;;;;3.05;1.80;;;-4.30;99.90;;;;;;5061660;28;20395;-68
2021/12/21 10:04:51;;;;;;;8.80;4.05;;;-4.10;99.90;;;;;;5038767;28;21522;-65
2021/12/21 10:07:18;;;;;;;4.40;1.58;;;-4.20;99.90;;;;;;5060202;28;20476;-66
2021/12/21 10:09:47;;;;;;;6.10;1.95;;;-4.30;99.90;;;;;;5062043;28;20555;-68
2021/12/21 10:12:14;;;;;;;5.07;1.42;;;-4.40;99.90;;;;;;5056984;28;20066;-65
2021/12/21 10:14:40;;;;;;;2.88;1.50;;;-4.20;99.90;;;;;;5057093;28;20825;-67
2021/12/21 10:17:08;;;;;;;3.70;1.80;;;-3.90;99.90;;;;;;5063663;28;20028;-70
2021/12/21 10:19:35;;;;;;;2.80;1.50;;;-3.90;99.90;;;;;;5064423;28;20548;-67
2021/12/21 10:22:12;;;;;;;4.68;1.88;;;-3.90;99.90;;;;;;5060720;28;20040;-66
2021/12/21 10:24:50;;;;;;;2.58;1.17;;;-4.10;99.90;;;;;;5059515;28;20086;-65
2021/12/21 10:27:18;;;;;;;3.15;1.50;;;-4.30;99.90;;;;;;5062652;28;20355;-65
2021/12/21 10:29:53;;;;;;;3.78;1.77;;;-4.90;99.90;;;;;;5066393;28;20031;-63
2021/12/21 10:32:32;;;;;;;3.25;1.75;;;-5.30;99.90;;;;;;5053171;28;20044;-67
2021/12/21 10:35:10;;;;;;;3.22;1.30;;;-5.30;99.90;;;;;;5061671;28;20386;-64
2021/12/21 10:37:41;;;;;;;4.13;1.52;;;-5.00;99.90;;;;;;5060358;28;20533;-65
2021/12/21 10:40:13;;;;;;;2.80;1.33;;;-4.90;99.90;;;;;;5057598;28;20052;-68
2021/12/21 10:43:03;;;;;;;4.80;1.73;;;-4.90;99.90;;;;;;5041290;28;20032;-67
2021/12/21 10:45:33;;;;;;;5.25;2.67;;;-4.90;99.90;;;;;;5062292;28;20162;-62
2021/12/21 10:48:01;;;;;;;4.40;1.42;;;-5.00;99.90;;;;;;5052980;28;20021;-65
2021/12/21 10:50:29;;;;;;;2.95;1.42;;;-5.00;99.90;;;;;;5062848;28;20103;-68
2021/12/21 10:52:59;;;;;;;3.00;1.42;;;-5.10;99.90;;;;;;5063612;28;20478;-66
2021/12/21 10:55:34;;;;;;;4.35;1.42;;;-5.30;99.90;;;;;;5056576;28;20078;-66
2021/12/21 10:58:15;;;;;;;3.05;1.23;;;-5.10;99.90;;;;;;5055575;28;20036;-66
2021/12/21 11:00:54;;;;;;;2.00;1.13;;;-5.20;99.90;;;;;;5060399;28;20025;-66
2021/12/21 11:03:51;;;;;;;1.88;1.25;;;-5.40;99.90;;;;;;5050920;28;20592;-65
2021/12/21 11:06:31;;;;;;;1.95;1.10;;;-5.60;99.90;;;;;;5060764;28;20021;-66
2021/12/21 11:08:57;;;;;;;1.58;1.17;;;-5.70;99.90;;;;;;5054109;28;20507;-66
2021/12/21 11:11:42;;;;;;;;;;;-5.80;99.90;;;;;;5054099;28;20510;-66
2021/12/21 11:14:13;;;;;;;2.65;1.10;;;-5.60;99.90;;;;;;5054902;28;19973;-64
2021/12/21 11:16:52;;;;;;;2.80;1.30;;;-5.40;99.90;;;;;;5056487;28;20034;-67
2021/12/21 11:19:20;;;;;;;2.83;1.48;;;-5.10;99.90;;;;;;5057714;28;20036;-66
2021/12/21 11:21:47;;;;;;;6.45;2.50;;;-5.20;99.90;;;;;;5063897;28;20368;-66
2021/12/21 11:24:16;;;;;;;4.32;1.58;;;-5.30;99.90;;;;;;5069466;28;20050;-66
2021/12/21 11:26:44;;;;;;;6.68;1.80;;;-5.50;99.90;;;;;;5060044;28;20479;-66
2021/12/21 11:29:18;;;;;;;3.20;1.80;;;-5.60;99.90;;;;;;5063784;28;20060;-66
2021/12/21 11:31:47;;;;;;;3.15;1.60;;;-5.40;99.90;;;;;;5064919;28;20407;-67
2021/12/21 11:34:20;;;;;;;3.47;1.60;;;-5.10;99.90;;;;;;5065847;28;20024;-66
2021/12/21 11:39:33;;;;;;;3.25;1.27;;;-4.10;99.90;;;;;;5057427;28;20631;-69
2021/12/21 11:42:01;;;;;;;2.92;1.27;;;-4.20;99.90;;;;;;5062267;28;20376;-66
2021/12/21 11:44:42;;;;;;;2.45;1.08;;;-4.40;99.90;;;;;;5061486;28;20051;-68
2021/12/21 11:47:12;;;;;;;2.17;1.10;;;-5.10;99.90;;;;;;5058384;28;20051;-67
2021/12/21 11:49:50;;;;;;;4.00;1.48;;;-5.70;99.90;;;;;;5054492;28;20083;-67
2021/12/21 11:52:22;;;;;;;1.90;1.15;;;-6.20;99.90;;;;;;5042192;28;20044;-67
2021/12/21 11:54:53;;;;;;;3.55;1.40;;;-6.40;99.90;;;;;;5065057;28;20021;-68
2021/12/21 11:57:31;;;;;;;1.75;1.10;;;-6.40;99.90;;;;;;5065549;28;20119;-67
2021/12/21 12:00:06;;;;;;;4.97;1.63;;;-6.30;99.90;;;;;;5060965;28;20086;-66
2021/12/21 12:02:33;;;;;;;2.53;1.17;;;-6.50;99.90;;;;;;5060895;28;20476;-65
2021/12/21 12:04:59;;;;;;;3.83;1.42;;;-6.30;99.90;;;;;;5042679;28;20102;-63
2021/12/21 12:07:24;;;;;;;2.53;1.58;;;-6.20;99.90;;;;;;5061247;28;20024;-64
2021/12/21 12:10:13;;;;;;;2.38;1.17;;;-6.20;99.90;;;;;;5062862;28;20035;-64
2021/12/21 12:12:39;;;;;;;3.55;1.52;;;-6.20;99.90;;;;;;5060647;28;20032;-65
2021/12/21 12:15:07;;;;;;;4.57;1.98;;;-6.20;99.90;;;;;;5058975;28;20028;-64
2021/12/21 12:17:45;;;;;;;4.10;1.70;;;-6.30;99.90;;;;;;5060219;28;20052;-64
2021/12/21 12:20:12;;;;;;;4.78;2.38;;;-6.00;99.90;;;;;;5061061;28;20028;-63
2021/12/21 12:22:41;;;;;;;3.97;2.00;;;-6.00;99.90;;;;;;5064127;28;20032;-65
2021/12/21 12:25:18;;;;;;;4.75;2.15;;;-6.10;99.90;;;;;;5058467;28;20511;-65
2021/12/21 12:27:47;;;;;;;7.03;2.83;;;-6.00;99.90;;;;;;5062879;28;20517;-66
2021/12/21 12:30:16;;;;;;;4.85;2.50;;;-6.00;99.90;;;;;;5065965;28;20067;-66
2021/12/21 12:32:48;;;;;;;5.22;2.50;;;-6.30;99.90;;;;;;5064309;28;20056;-67
2021/12/21 12:35:25;;;;;;;6.47;2.33;;;-6.30;99.90;;;;;;5062325;28;20135;-66
2021/12/21 12:38:02;;;;;;;6.15;2.40;;;-6.40;99.90;;;;;;5065575;28;20121;-66
2021/12/21 12:40:33;;;;;;;6.47;2.13;;;-6.70;99.90;;;;;;5065697;28;20136;-65
2021/12/21 12:43:05;;;;;;;7.43;2.53;;;-6.70;99.90;;;;;;5067679;28;20119;-66
2021/12/21 12:45:53;;;;;;;4.60;2.13;;;-6.70;99.90;;;;;;5063228;28;20028;-64
2021/12/21 12:48:32;;;;;;;4.30;1.90;;;-6.40;99.90;;;;;;5067630;28;20036;-67
2021/12/21 12:51:02;;;;;;;5.13;2.10;;;-6.20;99.90;;;;;;5070259;28;20508;-68
2021/12/21 12:53:43;;;;;;;5.15;2.17;;;-6.30;99.90;;;;;;5050904;28;20395;-66
2021/12/21 12:56:18;;;;;;;3.40;1.45;;;-6.60;99.90;;;;;;5063902;28;20476;-67
2021/12/21 12:59:03;;;;;;;3.45;1.50;;;-6.70;99.90;;;;;;5055214;28;20668;-66
2021/12/21 13:01:39;;;;;;;4.20;2.08;;;-6.90;99.90;;;;;;5062684;28;20159;-67
2021/12/21 13:04:09;;;;;;;5.80;2.33;;;-7.10;99.90;;;;;;5060554;28;20028;-69
2021/12/21 13:06:36;;;;;;;4.70;1.98;;;-7.00;99.90;;;;;;5069867;28;20484;-66
2021/12/21 13:09:12;;;;;;;4.40;2.20;;;-6.80;99.90;;;;;;5068165;28;20032;-69
2021/12/21 13:11:40;;;;;;;3.88;1.70;;;-6.70;99.90;;;;;;5049145;28;20037;-68
2021/12/21 13:14:08;;;;;;;5.97;2.38;;;-6.50;99.90;;;;;;5066312;28;20093;-68
2021/12/21 13:16:36;;;;;;;5.13;1.70;;;-6.70;99.90;;;;;;5047691;28;20044;-66
2021/12/21 13:19:08;;;;;;;4.45;2.03;;;-6.80;99.90;;;;;;5045153;28;20036;-66
2021/12/21 13:21:43;;;;;;;4.13;1.90;;;-6.80;99.90;;;;;;5070799;28;20032;-66
2021/12/21 13:24:24;;;;;;;2.88;1.50;;;-6.90;99.90;;;;;;5071952;28;20123;-67
2021/12/21 13:26:55;;;;;;;4.65;1.75;;;-7.20;99.90;;;;;;5069129;28;20032;-70
2021/12/21 13:29:33;;;;;;;4.85;1.63;;;-7.30;99.90;;;;;;5077277;28;20107;-68
2021/12/21 13:32:04;;;;;;;4.28;2.10;;;-7.30;99.90;;;;;;5066527;28;20040;-68
2021/12/21 13:34:30;;;;;;;4.32;2.00;;;-7.40;99.90;;;;;;5069902;28;20103;-65
2021/12/21 13:37:02;;;;;;;8.70;4.22;;;-7.20;99.90;;;;;;5069088;28;20139;-63
2021/12/21 13:39:36;;;;;;;4.68;1.85;;;-7.10;99.90;;;;;;5069866;28;20090;-63
2021/12/21 13:42:06;;;;;;;5.38;2.30;;;-7.40;99.90;;;;;;5069376;28;20623;-63
2021/12/21 13:44:37;;;;;;;7.15;1.92;;;-7.40;99.90;;;;;;5048175;28;20029;-62
2021/12/21 13:47:14;;;;;;;31.70;12.90;;;-7.70;99.90;;;;;;5068133;28;20029;-63
2021/12/21 13:50:03;;;;;;;8.82;3.13;;;-7.70;99.90;;;;;;5068293;28;21696;-62
2021/12/21 13:52:33;;;;;;;6.50;2.67;;;-7.60;99.90;;;;;;5067084;28;20047;-63
2021/12/21 13:54:59;;;;;;;7.07;3.03;;;-7.70;99.90;;;;;;5058185;28;20464;-62
2021/12/21 13:57:25;;;;;;;42.08;18.90;;;-7.50;99.90;;;;;;5070401;28;20085;-64
2021/12/21 13:59:54;;;;;;;5.65;2.70;;;-7.50;99.90;;;;;;5066398;28;20607;-67
2021/12/21 14:02:26;;;;;;;6.35;3.17;;;-7.40;99.90;;;;;;5070759;28;20029;-65
2021/12/21 14:05:00;;;;;;;3.50;2.08;;;-7.40;99.90;;;;;;5070225;28;20025;-65
2021/12/21 14:07:30;;;;;;;6.68;2.70;;;-7.60;99.90;;;;;;5078714;28;20035;-69
2021/12/21 14:10:17;;;;;;;6.53;2.55;;;-7.70;99.90;;;;;;5066658;28;20031;-67
2021/12/21 14:12:58;;;;;;;6.93;2.42;;;-7.80;99.90;;;;;;5071069;28;20151;-68